Amonate, Virginia
Current Conditions -  °F | °C
As of 5:55 PM on Tuesday 21 Oct 2014 (Local Time) from KJFZ Reporting Station
Overcast Overcast  
Wind Chill: 11°   Ceiling: 5000
Heat Index: 11°   Visibility: 10mi
Dew Point:   Wind: 12mph
Humidity: 60%   Direction: 320°NW
Pressure: 30"   Gusts: 21mph
Location:  37.19°N, 81.64°W
Report Text: KJFZ 212155Z AUTO 32010G18KT 10SM SCT029 OVC050 11/04 A3000 RMK AO2 T01100036
Loading
Personal Weather Stations






























Interactive Weather Map
Tropical Storm Tracking
New forecast layout! Learn more

10-Day Weather Forecast

Advertisements
Track Severe Weather on mobile